Time;durP1;ratioP1;P1;durP2;ratioP2;P2;SDS_P1;SDS_P2;PMS_P1;PMS_P2;Temp;Humidity;BMP_temperature;BMP_pressure;BME280_temperature;BME280_humidity;BME280_pressure;Samples;Min_cycle;Max_cycle;Signal;HPM_P1;HPM_P2
2023/02/08 00:01:31;;;;;;;;;;;;;;;-144.99;84.32;52582.63;5047044;28;19964;-74
2023/02/08 00:03:58;;;;;;;;;;;;;;;-144.99;84.62;52562.25;5050894;28;20014;-74
2023/02/08 00:06:24;;;;;;;;;;;;;;;-144.99;84.40;52556.13;5049318;28;19956;-75
2023/02/08 00:08:51;;;;;;;;;;;;;;;-144.99;84.22;52525.56;5049759;28;19967;-74
2023/02/08 00:11:19;;;;;;;;;;;;;;;-144.99;84.15;52529.63;5049753;28;19968;-74
2023/02/08 00:13:45;;;;;;;;;;;;;;;-144.99;83.76;52554.09;5049693;28;20392;-74
2023/02/08 00:16:12;;;;;;;;;;;;;;;-144.99;83.11;52525.56;5050442;28;19965;-74
2023/02/08 00:18:39;;;;;;;;;;;;;;;-144.99;81.97;52550.00;5050308;28;19924;-74
2023/02/08 00:21:11;;;;;;;;;;;;;;;-144.99;80.38;52541.84;5046451;28;20012;-74
2023/02/08 00:23:38;;;;;;;;;;;;;;;-144.99;81.41;52523.50;5049018;28;19972;-75
2023/02/08 00:26:05;;;;;;;;;;;;;;;-144.99;82.02;52578.53;5048950;28;20016;-75
2023/02/08 00:28:32;;;;;;;;;;;;;;;-144.99;81.98;52574.47;5051656;28;19960;-75
2023/02/08 00:30:59;;;;;;;;;;;;;;;-144.99;82.37;52558.16;5049736;28;20003;-75
2023/02/08 00:33:25;;;;;;;;;;;;;;;-144.99;82.78;52545.94;5051494;28;19967;-74
2023/02/08 00:35:57;;;;;;;;;;;;;;;-144.99;81.15;52541.84;5047078;28;19964;-74
2023/02/08 00:38:24;;;;;;;;;;;;;;;-144.99;80.87;52531.66;5049822;28;19967;-74
2023/02/08 00:40:51;;;;;;;;;;;;;;;-144.99;81.60;52564.28;5049235;28;19974;-75
2023/02/08 00:43:17;;;;;;;;;;;;;;;-144.99;82.25;52547.97;5047833;28;20012;-75
2023/02/08 00:45:45;;;;;;;;;;;;;;;-144.99;82.58;52558.16;5050374;28;20019;-74
2023/02/08 00:48:11;;;;;;;;;;;;;;;-144.99;82.47;52550.00;5051494;28;20382;-73
2023/02/08 00:50:38;;;;;;;;;;;;;;;-144.99;82.36;52529.63;5049424;28;19952;-73
2023/02/08 00:53:04;;;;;;;;;;;;;;;-144.99;82.14;52529.63;5047039;28;19983;-74
2023/02/08 00:55:31;;;;;;;;;;;;;;;-144.99;82.05;52521.47;5046932;28;20362;-73
2023/02/08 00:57:57;;;;;;;;;;;;;;;-144.99;81.78;52550.00;5050070;28;20373;-75
2023/02/08 01:00:24;;;;;;;;;;;;;;;-144.99;81.78;52521.47;5047438;28;20074;-74
2023/02/08 01:02:51;;;;;;;;;;;;;;;-144.99;81.90;52594.84;5052235;28;19968;-75
2023/02/08 01:05:18;;;;;;;;;;;;;;;-144.99;81.97;52545.94;5070652;28;19928;-74
2023/02/08 01:07:44;;;;;;;;;;;;;;;-144.99;82.30;52554.09;5069928;28;19940;-74
2023/02/08 01:10:11;;;;;;;;;;;;;;;-144.99;82.32;52554.09;5065853;28;19925;-74
2023/02/08 01:12:38;;;;;;;;;;;;;;;-144.99;82.58;52525.56;5065324;28;19949;-75
2023/02/08 01:15:05;;;;;;;;;;;;;;;-144.99;82.63;52574.47;5068799;28;19955;-76
2023/02/08 01:17:31;;;;;;;;;;;;;;;-144.99;82.67;52560.19;5061446;28;19924;-76
2023/02/08 01:19:59;;;;;;;;;;;;;;;-144.99;82.93;52533.69;5049399;28;19929;-75
2023/02/08 01:22:26;;;;;;;;;;;;;;;-144.99;82.83;52550.00;5046948;28;20016;-74
2023/02/08 01:24:52;;;;;;;;;;;;;;;-144.99;82.75;52558.16;5047837;28;20155;-74
2023/02/08 01:27:18;;;;;;;;;;;;;;;-144.99;82.76;52533.69;5048365;28;20431;-74
2023/02/08 01:29:45;;;;;;;;;;;;;;;-144.99;82.75;52505.16;5047149;28;20016;-74
2023/02/08 01:32:12;;;;;;;;;;;;;;;-144.99;82.85;52584.66;5046721;28;19957;-74
2023/02/08 01:34:38;;;;;;;;;;;;;;;-144.99;82.69;52550.00;5047663;28;20032;-76
2023/02/08 01:37:06;;;;;;;;;;;;;;;-144.99;82.74;52568.34;5048560;28;20369;-75
2023/02/08 01:39:32;;;;;;;;;;;;;;;-144.99;82.95;52550.00;5047096;28;19994;-74
2023/02/08 01:41:59;;;;;;;;;;;;;;;-144.99;83.37;52586.69;5047329;28;20015;-73
2023/02/08 01:44:44;;;;;;;;;;;;;;;-144.99;82.98;52560.19;5047815;28;20052;-74
2023/02/08 01:47:11;;;;;;;;;;;;;;;-144.99;83.07;52529.63;5050694;28;19933;-75
2023/02/08 01:49:37;;;;;;;;;;;;;;;-144.99;82.77;52529.63;5048710;28;19964;-74
2023/02/08 01:52:07;;;;;;;;;;;;;;;-144.99;82.90;52550.00;5047428;28;20027;-74
2023/02/08 01:54:36;;;;;;;;;;;;;;;-144.99;82.99;52517.41;5047065;28;20692;-74
2023/02/08 01:57:03;;;;;;;;;;;;;;;-144.99;82.79;52509.25;5050041;28;19991;-75
2023/02/08 01:59:33;;;;;;;;;;;;;;;-144.99;82.79;52586.69;5046564;28;19960;-73
2023/02/08 02:02:00;;;;;;;;;;;;;;;-144.99;82.79;52554.09;5045942;28;19959;-73
2023/02/08 02:04:27;;;;;;;;;;;;;;;-144.99;82.66;52509.25;5046682;28;19990;-74
2023/02/08 02:06:55;;;;;;;;;;;;;;;-144.99;82.71;52545.94;5048434;28;20353;-74
2023/02/08 02:09:27;;;;;;;;;;;;;;;-144.99;82.67;52556.13;5047717;28;20372;-75
2023/02/08 02:11:54;;;;;;;;;;;;;;;-144.99;82.83;52507.19;5047013;28;20378;-76
2023/02/08 02:14:21;;;;;;;;;;;;;;;-144.99;83.04;52505.16;5047210;28;19976;-74
2023/02/08 02:16:47;;;;;;;;;;;;;;;-144.99;83.06;52558.16;5047756;28;20032;-74
2023/02/08 02:19:17;;;;;;;;;;;;;;;-144.99;83.11;52533.69;5047355;28;20035;-75
2023/02/08 02:21:50;;;;;;;;;;;;;;;-144.99;83.08;52533.69;5043834;28;20027;-74
2023/02/08 02:24:31;;;;;;;;;;;;;;;-144.99;82.87;52521.47;5047314;28;19933;-75
2023/02/08 02:27:13;;;;;;;;;;;;;;;-144.99;82.94;52505.16;5046229;28;19970;-74
2023/02/08 02:29:55;;;;;;;;;;;;;;;-144.99;83.90;52582.63;5046026;28;19929;-75
2023/02/08 02:32:28;;;;;;;;;;;;;;;-144.99;83.85;52543.91;5045989;28;19956;-75
2023/02/08 02:34:58;;;;;;;;;;;;;;;-144.99;83.78;52556.13;5048144;28;19968;-75
2023/02/08 02:37:30;;;;;;;;;;;;;;;-144.99;83.89;52517.41;5057455;28;19975;-75
2023/02/08 02:40:03;;;;;;;;;;;;;;;-144.99;83.96;52533.69;5047100;28;20027;-76
2023/02/08 02:45:24;;;;;;;;;;;;;;;-144.99;83.71;52541.84;5047248;28;20094;-73
2023/02/08 02:47:55;;;;;;;;;;;;;;;-144.99;83.63;52562.25;5051147;28;19965;-72
2023/02/08 02:50:24;;;;;;;;;;;;;;;-144.99;84.16;52566.31;5048170;28;20342;-74
2023/02/08 02:52:53;;;;;;;;;;;;;;;-144.99;84.19;52521.47;5046514;28;20303;-74
2023/02/08 02:55:23;;;;;;;;;;;;;;;-144.99;84.11;52590.78;5044076;28;20019;-73
2023/02/08 02:57:51;;;;;;;;;;;;;;;-144.99;84.47;52505.16;5047649;28;19932;-73
2023/02/08 03:00:21;;;;;;;;;;;;;;;-144.99;85.04;52545.94;5046936;28;20405;-76
2023/02/08 03:02:48;;;;;;;;;;;;;;;-144.99;84.60;52529.63;5047994;28;20380;-75
2023/02/08 03:05:15;;;;;;;;;;;;;;;-144.99;84.56;52578.53;5060984;28;19913;-76
2023/02/08 03:08:01;;;;;;;;;;;;;;;-144.99;83.94;52537.78;5070161;28;19920;-75
2023/02/08 03:10:38;;;;;;;;;;;;;;;-144.99;83.81;52594.84;5063573;28;20013;-76
2023/02/08 03:13:09;;;;;;;;;;;;;;;-144.99;84.56;52531.66;5047605;28;19978;-75
2023/02/08 03:15:40;;;;;;;;;;;;;;;-144.99;84.38;52523.50;5046731;28;19964;-75
2023/02/08 03:18:14;;;;;;;;;;;;;;;-144.99;84.63;52541.84;5048465;28;19925;-75
2023/02/08 03:20:45;;;;;;;;;;;;;;;-144.99;84.67;52484.78;5047000;28;19971;-74
2023/02/08 03:23:15;;;;;;;;;;;;;;;-144.99;84.41;52574.47;5044666;28;19968;-73
2023/02/08 03:25:49;;;;;;;;;;;;;;;-144.99;84.61;52545.94;5046972;28;20016;-74
2023/02/08 03:28:19;;;;;;;;;;;;;;;-144.99;84.73;52566.31;5048667;28;19983;-74
2023/02/08 03:30:50;;;;;;;;;;;;;;;-144.99;84.27;52562.25;5045623;28;20027;-73
2023/02/08 03:33:18;;;;;;;;;;;;;;;-144.99;84.16;52529.63;5047115;28;20023;-73
2023/02/08 03:35:48;;;;;;;;;;;;;;;-144.99;84.10;52539.81;5048988;28;19995;-74
2023/02/08 03:38:18;;;;;;;;;;;;;;;-144.99;83.70;52562.25;5047326;28;19971;-74
2023/02/08 03:40:45;;;;;;;;;;;;;;;-144.99;84.40;52558.16;5042079;28;20155;-74
2023/02/08 03:43:16;;;;;;;;;;;;;;;-144.99;84.25;52505.16;5045783;28;19965;-74
2023/02/08 03:45:46;;;;;;;;;;;;;;;-144.99;84.35;52556.13;5046260;28;20023;-75
2023/02/08 03:48:14;;;;;;;;;;;;;;;-144.99;84.16;52523.50;5047663;28;20043;-74
2023/02/08 03:50:41;;;;;;;;;;;;;;;-144.99;83.83;52570.38;5048111;28;19987;-74
2023/02/08 03:53:10;;;;;;;;;;;;;;;-144.99;83.87;52541.84;5077666;22;20000;-76
2023/02/08 03:55:37;;;;;;;;;;;;;;;-144.99;83.74;52570.38;5041967;28;19930;-76
2023/02/08 03:58:06;;;;;;;;;;;;;;;-144.99;100.00;61100.13;5048009;28;20231;-78
2023/02/08 04:00:36;;;;;;;;;;;;;;;-144.99;100.00;61100.13;5057783;28;20459;-77
2023/02/08 04:03:06;;;;;;;;;;;;;;;-144.99;nan;52525.56;5064877;28;19935;-76
2023/02/08 04:05:33;;;;;;;;;;;;;;;-144.99;nan;52574.47;5066248;28;19932;-74
2023/02/08 04:07:59;;;;;;;;;;;;;;;-144.99;nan;52582.63;5055407;28;20521;-76
2023/02/08 04:10:27;;;;;;;;;;;;;;;-144.99;nan;52541.84;5047254;28;19964;-75
2023/02/08 04:12:56;;;;;;;;;;;;;;;-144.99;nan;52588.75;5042171;28;19929;-76
2023/02/08 04:15:23;;;;;;;;;;;;;;;-144.99;nan;52545.94;5044079;28;19970;-77
2023/02/08 04:17:49;;;;;;;;;;;;;;;-144.99;nan;52566.31;5043913;28;19980;-77
2023/02/08 04:20:16;;;;;;;;;;;;;;;-144.99;nan;52545.94;5036934;28;19925;-80
2023/02/08 04:22:42;;;;;;;;;;;;;;;-144.99;nan;52529.63;5049696;28;20030;-78
2023/02/08 04:25:10;;;;;;;;;;;;;;;-144.99;nan;52545.94;5058862;28;19925;-75
2023/02/08 04:27:38;;;;;;;;;;;;;;;-144.99;nan;52533.69;5069778;28;19913;-76
2023/02/08 04:30:05;;;;;;;;;;;;;;;-144.99;nan;52529.63;5073493;28;19919;-78
2023/02/08 04:32:31;;;;;;;;;;;;;;;-144.99;nan;52545.94;5070314;28;19913;-76
2023/02/08 04:34:58;;;;;;;;;;;;;;;-144.99;nan;52558.16;5072316;28;19912;-77
2023/02/08 04:37:24;;;;;;;;;;;;;;;-144.99;nan;52547.97;5072335;28;19912;-76
2023/02/08 04:39:51;;;;;;;;;;;;;;;-144.99;nan;52562.25;5073043;28;19924;-75
2023/02/08 04:42:17;;;;;;;;;;;;;;;-144.99;nan;52533.69;5071179;28;20651;-74
2023/02/08 04:44:45;;;;;;;;;;;;;;;-144.99;nan;52566.31;5070153;28;19913;-75
2023/02/08 04:47:11;;;;;;;;;;;;;;;-144.99;nan;52545.94;5072228;28;19913;-75
2023/02/08 04:49:38;;;;;;;;;;;;;;;-144.99;nan;52554.09;5071743;28;19928;-76
2023/02/08 04:52:04;;;;;;;;;;;;;;;-144.99;nan;52576.50;5068132;28;20264;-80
2023/02/08 04:54:31;;;;;;;;;;;;;;;-144.99;nan;52497.00;5076051;28;19920;-79
2023/02/08 04:56:57;;;;;;;;;;;;;;;-144.99;nan;52533.69;5072135;28;19917;-79
2023/02/08 04:59:24;;;;;;;;;;;;;;;-144.99;nan;52513.31;5070339;28;19959;-78
2023/02/08 05:01:51;;;;;;;;;;;;;;;-144.99;nan;52554.09;5071686;28;19935;-78
2023/02/08 05:04:18;;;;;;;;;;;;;;;-144.99;nan;52564.28;5075399;28;20097;-77
2023/02/08 05:06:44;;;;;;;;;;;;;;;-144.99;nan;52562.25;5072589;28;19912;-78
2023/02/08 05:09:11;;;;;;;;;;;;;;;-144.99;nan;52554.09;5073573;28;19933;-77
2023/02/08 05:11:37;;;;;;;;;;;;;;;-144.99;nan;52570.38;5072935;28;19924;-79
2023/02/08 05:14:04;;;;;;;;;;;;;;;-144.99;nan;52545.94;5073169;28;19939;-75
2023/02/08 05:16:30;;;;;;;;;;;;;;;-144.99;nan;52509.25;5065934;28;19936;-76
2023/02/08 05:18:58;;;;;;;;;;;;;;;-144.99;nan;52570.38;5070093;28;19924;-76
2023/02/08 05:21:25;;;;;;;;;;;;;;;-144.99;nan;52570.38;5067878;28;19928;-75
2023/02/08 05:23:51;;;;;;;;;;;;;;;-144.99;nan;52533.69;5062586;28;19952;-76
2023/02/08 05:26:18;;;;;;;;;;;;;;;-144.99;nan;52543.91;5071426;28;19951;-76
2023/02/08 05:28:45;;;;;;;;;;;;;;;-144.99;nan;52525.56;5071478;28;20203;-74
2023/02/08 05:31:15;;;;;;;;;;;;;;;-144.99;nan;52574.47;5074213;28;20224;-74
2023/02/08 05:33:41;;;;;;;;;;;;;;;-144.99;nan;52558.16;5067277;28;19940;-74
2023/02/08 05:36:09;;;;;;;;;;;;;;;-144.99;nan;52594.84;5075326;28;19913;-75
2023/02/08 05:38:36;;;;;;;;;;;;;;;-144.99;nan;52558.16;5071973;28;19913;-74
2023/02/08 05:41:02;;;;;;;;;;;;;;;-144.99;nan;52523.50;5069686;28;19932;-76
2023/02/08 05:43:29;;;;;;;;;;;;;;;-144.99;nan;52545.94;5070300;28;19912;-75
2023/02/08 05:45:55;;;;;;;;;;;;;;;-144.99;nan;52529.63;5076500;28;19954;-75
2023/02/08 05:48:22;;;;;;;;;;;;;;;-144.99;nan;52578.53;5074972;28;19913;-75
2023/02/08 05:50:48;;;;;;;;;;;;;;;-144.99;nan;52566.31;5066598;28;19951;-76
2023/02/08 05:53:16;;;;;;;;;;;;;;;-144.99;nan;52586.69;5066566;28;19917;-77
2023/02/08 05:55:44;;;;;;;;;;;;;;;-144.99;nan;52580.59;5065044;28;20364;-76
2023/02/08 05:58:10;;;;;;;;;;;;;;;-144.99;nan;52533.69;5067205;28;19919;-77
2023/02/08 06:00:37;;;;;;;;;;;;;;;-144.99;nan;52543.91;5070302;28;19913;-77
2023/02/08 06:03:03;;;;;;;;;;;;;;;-144.99;nan;52529.63;5073310;28;19933;-78
2023/02/08 06:05:30;;;;;;;;;;;;;;;-144.99;nan;52570.38;5074047;28;19913;-75
2023/02/08 06:07:56;;;;;;;;;;;;;;;-144.99;nan;52566.31;5069893;28;19990;-75
2023/02/08 06:10:24;;;;;;;;;;;;;;;-144.99;nan;52525.56;5067148;28;20749;-75
2023/02/08 06:12:50;;;;;;;;;;;;;;;-144.99;nan;52554.09;5066181;28;19944;-76
2023/02/08 06:15:17;;;;;;;;;;;;;;;-144.99;nan;52537.78;5064575;28;19956;-74
2023/02/08 06:17:43;;;;;;;;;;;;;;;-144.99;nan;52525.56;4365463;28;10000711;-76
2023/02/08 06:20:10;;;;;;;;;;;;;;;-144.99;nan;52568.34;5065856;28;19951;-76
2023/02/08 06:22:37;;;;;;;;;;;;;;;-144.99;nan;52562.25;5064338;28;19923;-81
2023/02/08 06:25:04;;;;;;;;;;;;;;;-144.99;nan;52580.59;5067931;28;19974;-77
2023/02/08 06:27:31;;;;;;;;;;;;;;;-144.99;nan;52545.94;5072519;28;19921;-77
2023/02/08 06:29:58;;;;;;;;;;;;;;;-144.99;nan;52478.66;5063683;28;19917;-76
2023/02/08 06:32:25;;;;;;;;;;;;;;;-144.99;nan;52509.25;5067086;28;19912;-76
2023/02/08 06:34:51;;;;;;;;;;;;;;;-144.99;nan;52578.53;5057726;28;20324;-76
2023/02/08 06:37:18;;;;;;;;;;;;;;;-144.99;nan;52562.25;5056873;28;19913;-76
2023/02/08 06:39:44;;;;;;;;;;;;;;;-144.99;nan;52513.31;5059919;28;20207;-76
2023/02/08 06:42:11;;;;;;;;;;;;;;;-144.99;nan;52550.00;5058389;28;19923;-77
2023/02/08 06:44:38;;;;;;;;;;;;;;;-144.99;nan;52562.25;5067306;28;19925;-77
2023/02/08 06:47:05;;;;;;;;;;;;;;;-144.99;nan;52515.34;5066408;28;19936;-76
2023/02/08 06:49:31;;;;;;;;;;;;;;;-144.99;nan;52554.09;5062707;28;19921;-77
2023/02/08 06:51:58;;;;;;;;;;;;;;;-144.99;nan;52554.09;5062350;28;19913;-77
2023/02/08 06:54:24;;;;;;;;;;;;;;;-144.99;nan;52574.47;5064984;28;19928;-76
2023/02/08 06:56:51;;;;;;;;;;;;;;;-144.99;nan;52590.78;5064621;28;19913;-77
2023/02/08 06:59:17;;;;;;;;;;;;;;;-144.99;nan;52537.78;5064878;28;19928;-77
2023/02/08 07:01:45;;;;;;;;;;;;;;;-144.99;nan;52503.13;5064352;28;19999;-77
2023/02/08 07:04:12;;;;;;;;;;;;;;;-144.99;nan;52533.69;5061059;28;20380;-76
2023/02/08 07:06:38;;;;;;;;;;;;;;;-144.99;nan;52541.84;5051788;28;19940;-77
2023/02/08 07:09:04;;;;;;;;;;;;;;;-144.99;nan;52558.16;5030858;28;19967;-76
2023/02/08 07:11:31;;;;;;;;;;;;;;;-144.99;nan;52533.69;5042681;28;20087;-78
2023/02/08 07:13:57;;;;;;;;;;;;;;;-144.99;nan;52545.94;5037919;28;19933;-76
2023/02/08 07:16:24;;;;;;;;;;;;;;;-144.99;nan;52558.16;5039351;28;20384;-75
2023/02/08 07:18:52;;;;;;;;;;;;;;;-144.99;nan;52525.56;5039752;28;19976;-77
2023/02/08 07:21:19;;;;;;;;;;;;;;;-144.99;nan;52513.31;5036916;28;19929;-76
2023/02/08 07:23:45;;;;;;;;;;;;;;;-144.99;nan;52517.41;5047533;28;20517;-76
2023/02/08 07:26:13;;;;;;;;;;;;;;;-144.99;nan;52509.25;5047533;28;20362;-76
2023/02/08 07:28:39;;;;;;;;;;;;;;;-144.99;nan;52545.94;5048409;28;19925;-76
2023/02/08 07:31:06;;;;;;;;;;;;;;;-144.99;nan;52533.69;5043609;28;19971;-76
2023/02/08 07:33:32;;;;;;;;;;;;;;;-144.99;nan;52574.47;5041531;28;19939;-75
2023/02/08 07:36:02;;;;;;;;;;;;;;;-144.99;nan;52525.56;5045511;28;20421;-76
2023/02/08 07:38:28;;;;;;;;;;;;;;;-144.99;nan;52566.31;5041985;28;20396;-75
2023/02/08 07:41:00;;;;;;;;;;;;;;;-144.99;nan;52533.69;5045201;28;19990;-75
2023/02/08 07:43:26;;;;;;;;;;;;;;;-144.99;nan;52566.31;5041911;28;19936;-75
2023/02/08 07:45:53;;;;;;;;;;;;;;;-144.99;nan;52513.31;5042525;28;19976;-75
2023/02/08 07:48:19;;;;;;;;;;;;;;;-144.99;nan;52539.81;5044196;28;20447;-76
2023/02/08 07:50:46;;;;;;;;;;;;;;;-144.99;nan;52552.03;5042534;28;20429;-75
2023/02/08 07:53:14;;;;;;;;;;;;;;;-144.99;nan;52554.09;5039995;28;19952;-77
2023/02/08 07:55:40;;;;;;;;;;;;;;;-144.99;nan;52533.69;5042977;28;19939;-75
2023/02/08 07:58:07;;;;;;;;;;;;;;;-144.99;nan;52533.69;5043730;28;20011;-76
2023/02/08 08:00:33;;;;;;;;;;;;;;;-144.99;nan;52541.84;5039118;28;20418;-75
2023/02/08 08:03:00;;;;;;;;;;;;;;;-144.99;nan;52509.25;5038310;28;19929;-76
2023/02/08 08:05:27;;;;;;;;;;;;;;;-144.99;nan;52505.16;5042013;28;20135;-76
2023/02/08 08:07:53;;;;;;;;;;;;;;;-144.99;nan;52501.09;5044789;28;19964;-75
2023/02/08 08:10:21;;;;;;;;;;;;;;;-144.99;nan;52492.94;5045474;28;20160;-76
2023/02/08 08:12:47;;;;;;;;;;;;;;;-144.99;nan;52505.16;5046721;28;21423;-74
2023/02/08 08:15:14;;;;;;;;;;;;;;;-144.99;nan;52494.97;5038731;28;19925;-75
2023/02/08 08:17:41;;;;;;;;;;;;;;;-144.99;nan;52509.25;5033959;28;19976;-75
2023/02/08 08:20:08;;;;;;;;;;;;;;;-144.99;nan;52509.25;5042111;28;19935;-75
2023/02/08 08:22:34;;;;;;;;;;;;;;;-144.99;nan;52494.97;5041518;28;20436;-75
2023/02/08 08:25:01;;;;;;;;;;;;;;;-144.99;nan;52550.00;5035965;28;19933;-76
2023/02/08 08:27:28;;;;;;;;;;;;;;;-144.99;nan;52513.31;5044879;28;19988;-74
2023/02/08 08:29:55;;;;;;;;;;;;;;;-144.99;nan;52533.69;5045298;28;20399;-74
2023/02/08 08:32:21;;;;;;;;;;;;;;;-144.99;nan;52537.78;5042799;28;20348;-73
2023/02/08 08:34:48;;;;;;;;;;;;;;;-144.99;nan;52509.25;5039597;28;19972;-75
2023/02/08 08:37:14;;;;;;;;;;;;;;;-144.99;nan;52480.72;5046692;28;19929;-74
2023/02/08 08:39:41;;;;;;;;;;;;;;;-144.99;nan;52525.56;5034075;28;19933;-75
2023/02/08 08:42:07;;;;;;;;;;;;;;;-144.99;nan;52505.16;5043677;28;20020;-74
2023/02/08 08:44:35;;;;;;;;;;;;;;;-144.99;nan;52505.16;5041152;28;19991;-75
2023/02/08 08:47:02;;;;;;;;;;;;;;;-144.99;nan;52523.50;5035360;28;20029;-75
2023/02/08 08:49:28;;;;;;;;;;;;;;;-144.99;nan;52517.41;5043645;28;20261;-74
2023/02/08 08:51:55;;;;;;;;;;;;;;;-144.99;nan;52468.47;5041166;28;20091;-76
2023/02/08 08:54:22;;;;;;;;;;;;;;;-144.99;nan;52515.34;5044461;28;19952;-74
2023/02/08 08:56:48;;;;;;;;;;;;;;;-144.99;nan;52537.78;5051657;28;19951;-75
2023/02/08 08:59:15;;;;;;;;;;;;;;;-144.99;nan;52537.78;5051040;28;19964;-75
2023/02/08 09:01:43;;;;;;;;;;;;;;;-144.99;nan;52517.41;5057756;28;19929;-75
2023/02/08 09:04:09;;;;;;;;;;;;;;;-144.99;nan;52497.00;5052334;28;19941;-75
2023/02/08 09:06:36;;;;;;;;;;;;;;;-144.99;nan;52513.31;5057662;28;20257;-75
2023/02/08 09:09:03;;;;;;;;;;;;;;;-144.99;nan;52513.31;5045909;28;19929;-75
2023/02/08 09:11:29;;;;;;;;;;;;;;;-144.99;nan;52509.25;5044383;28;19932;-74
2023/02/08 09:13:56;;;;;;;;;;;;;;;-144.99;nan;52505.16;5044627;28;19972;-74
2023/02/08 09:16:24;;;;;;;;;;;;;;;-144.99;nan;52468.47;5038341;28;21372;-74
2023/02/08 09:18:52;;;;;;;;;;;;;;;-144.99;nan;52490.91;5046610;28;20075;-74
2023/02/08 09:21:19;;;;;;;;;;;;;;;-144.99;nan;52480.72;5042518;28;20078;-75
2023/02/08 09:23:47;;;;;;;;;;;;;;;-144.99;nan;52509.25;5043474;28;19962;-74
2023/02/08 09:26:15;;;;;;;;;;;;;;;-144.99;nan;52468.47;5037633;28;19943;-73
2023/02/08 09:28:41;;;;;;;;;;;;;;;-144.99;nan;52460.31;5044229;28;20313;-74
2023/02/08 09:31:08;;;;;;;;;;;;;;;-144.99;nan;52501.09;5041426;28;19981;-73
2023/02/08 09:33:34;;;;;;;;;;;;;;;-144.99;nan;52529.63;5041416;28;20041;-73
2023/02/08 09:36:02;;;;;;;;;;;;;;;-144.99;nan;52497.00;5041465;28;20358;-74
2023/02/08 09:38:28;;;;;;;;;;;;;;;-144.99;nan;52519.44;5039625;28;19975;-75
2023/02/08 09:41:00;;;;;;;;;;;;;;;-144.99;nan;52484.78;5035830;28;19950;-72
2023/02/08 09:43:31;;;;;;;;;;;;;;;-144.99;nan;52482.75;5034359;28;20053;-73
2023/02/08 09:46:01;;;;;;;;;;;;;;;-144.99;nan;52448.09;5036067;28;19986;-74
2023/02/08 09:48:30;;;;;;;;;;;;;;;-144.99;nan;52497.00;5031150;28;19992;-73
2023/02/08 09:50:59;;;;;;;;;;;;;;;-144.99;nan;52472.56;5043093;28;20035;-74
2023/02/08 09:53:32;;;;;;;;;;;;;;;-144.99;nan;52464.41;5037038;28;20052;-75
2023/02/08 09:56:00;;;;;;;;;;;;;;;-144.99;nan;52437.91;5079516;22;20032;-77
2023/02/08 09:58:28;;;;;;;;;;;;;;;-144.99;nan;52425.66;5069015;28;20057;-78
2023/02/08 10:00:55;;;;;;;;;;;;;;;-144.99;nan;52437.91;5063448;28;20031;-80
2023/02/08 10:03:25;;;;;;;;;;;;;;;-144.99;nan;52415.47;5070380;28;20049;-78
2023/02/08 10:05:52;;;;;;;;;;;;;;;-144.99;nan;52433.81;5065992;28;20449;-76
2023/02/08 10:08:18;;;;;;;;;;;;;;;-144.99;nan;52407.31;5075925;28;20005;-77
2023/02/08 10:10:51;;;;;;;;;;;;;;;-144.99;nan;52376.75;5059841;28;20151;-79
2023/02/08 10:13:24;;;;;;;;;;;;;;;-144.99;nan;52444.03;5063360;28;20045;-79
2023/02/08 10:15:53;;;;;;;;;;;;;;;-144.99;nan;52395.09;5064290;28;20089;-77
2023/02/08 10:18:29;;;;;;;;;;;;;;;-144.99;nan;52388.97;5064515;28;20047;-80
2023/02/08 10:21:03;;;;;;;;;;;;;;;-144.99;nan;52407.31;5063235;28;20048;-82
2023/02/08 10:23:40;;;;;;;;;;;;;;;-144.99;nan;52378.78;5062631;28;20000;-78
2023/02/08 10:26:13;;;;;;;;;;;;;;;-144.99;nan;52382.88;5066530;28;20047;-76
2023/02/08 10:28:57;;;;;;;;;;;;;;;-144.99;nan;52342.09;5068260;28;20410;-77
2023/02/08 10:31:29;;;;;;;;;;;;;;;-144.99;nan;52342.09;5079175;28;19955;-85
2023/02/08 10:34:01;;;;;;;;;;;;;;;-144.99;nan;52329.88;5078265;28;20414;-77
2023/02/08 10:36:30;;;;;;;;;;;;;;;-144.99;nan;52283.00;5074825;28;20029;-76
2023/02/08 10:38:58;;;;;;;;;;;;;;;-144.99;nan;52297.25;5065867;28;19994;-75
2023/02/08 10:41:28;;;;;;;;;;;;;;;-144.99;nan;52264.66;5068878;28;19968;-76
2023/02/08 10:43:58;;;;;;;;;;;;;;;-144.99;nan;52276.88;5059257;28;20345;-76
2023/02/08 10:46:33;;;;;;;;;;;;;;;-144.99;nan;52283.00;5065053;28;19954;-78
2023/02/08 10:49:03;;;;;;;;;;;;;;;-144.99;nan;52227.97;5075126;28;19983;-80
2023/02/08 10:51:30;;;;;;;;;;;;;;;-144.99;nan;52223.88;4713015;28;10000069;-78
2023/02/08 10:53:57;;;;;;;;;;;;;;;-144.99;nan;52215.75;5067152;28;19998;-81
2023/02/08 10:56:41;;;;;;;;;;;;;;;-144.99;nan;52260.56;5066422;28;19961;-78
2023/02/08 10:59:15;;;;;;;;;;;;;;;-144.99;nan;52244.28;5055849;28;20029;-78
2023/02/08 11:01:42;;;;;;;;;;;;;;;-144.99;nan;52217.78;5064762;28;19978;-78
2023/02/08 11:04:10;;;;;;;;;;;;;;;-144.99;nan;52230.00;5065611;28;19977;-78
2023/02/08 11:06:37;;;;;;;;;;;;;;;-144.99;nan;52252.44;5089682;28;19954;-84
2023/02/08 11:09:03;;;;;;;;;;;;;;;-144.99;nan;52223.88;5067180;28;20380;-81
2023/02/08 11:11:34;;;;;;;;;;;;;;;-144.99;nan;52242.22;5069526;28;20004;-80
2023/02/08 11:14:07;;;;;;;;;;;;;;;-144.99;nan;52170.91;5063151;28;20382;-75
2023/02/08 11:16:35;;;;;;;;;;;;;;;-144.99;nan;52183.13;5069339;28;19988;-74
2023/02/08 11:19:04;;;;;;;;;;;;;;;-144.99;nan;52240.19;5068152;28;20327;-75
2023/02/08 11:21:33;;;;;;;;;;;;;;;-144.99;nan;52187.19;5067445;28;19942;-77
2023/02/08 11:24:01;;;;;;;;;;;;;;;-144.99;nan;52185.16;5069423;28;19962;-78
2023/02/08 11:26:32;;;;;;;;;;;;;;;-144.99;nan;52207.59;5071093;28;20017;-81
2023/02/08 11:29:00;;;;;;;;;;;;;;;-144.99;nan;52223.88;5074541;28;19972;-77
2023/02/08 11:31:30;;;;;;;;;;;;;;;-144.99;nan;52191.28;5069656;28;19984;-76
2023/02/08 11:34:02;;;;;;;;;;;;;;;-144.99;nan;52168.84;5070687;28;20029;-78
2023/02/08 11:36:30;;;;;;;;;;;;;;;-144.99;nan;52203.50;5069719;28;19925;-76
2023/02/08 11:38:58;;;;;;;;;;;;;;;-144.99;nan;52183.13;5059183;28;19925;-82
2023/02/08 11:41:29;;;;;;;;;;;;;;;-144.99;nan;52146.44;5087665;28;20370;-78
2023/02/08 11:43:58;;;;;;;;;;;;;;;-144.99;nan;52207.59;5065211;28;19939;-79
2023/02/08 11:46:26;;;;;;;;;;;;;;;-144.99;nan;52174.97;5071493;28;19951;-80
2023/02/08 11:48:53;;;;;;;;;;;;;;;-144.99;nan;52203.50;5073773;28;20027;-78
2023/02/08 11:51:26;;;;;;;;;;;;;;;-144.99;nan;52211.66;5072248;28;19928;-79
2023/02/08 11:53:53;;;;;;;;;;;;;;;-144.99;nan;52170.91;5068126;28;19963;-79
2023/02/08 11:56:21;;;;;;;;;;;;;;;-144.99;nan;52199.44;5069451;28;20401;-79
2023/02/08 11:58:58;;;;;;;;;;;;;;;-144.99;nan;52162.75;5069797;28;19960;-80
2023/02/08 12:01:27;;;;;;;;;;;;;;;-144.99;nan;52199.44;5072545;28;19960;-76
2023/02/08 12:03:56;;;;;;;;;;;;;;;-144.99;nan;52160.72;5071839;28;19924;-81
2023/02/08 12:06:33;;;;;;;;;;;;;;;-144.99;nan;52136.25;5071829;28;19928;-79
2023/02/08 12:09:03;;;;;;;;;;;;;;;-144.99;nan;52134.22;5071860;28;20324;-80
2023/02/08 12:11:37;;;;;;;;;;;;;;;-144.99;nan;52109.75;5069738;28;19973;-79
2023/02/08 12:14:12;;;;;;;;;;;;;;;-144.99;nan;52134.22;5072697;28;19937;-79
2023/02/08 12:16:49;;;;;;;;;;;;;;;-144.99;nan;52117.91;5070287;28;19955;-82
2023/02/08 12:19:34;;;;;;;;;;;;;;;-144.99;nan;52154.59;5071637;28;20086;-79
2023/02/08 12:22:06;;;;;;;;;;;;;;;-144.99;nan;52166.81;5051127;28;19929;-84
2023/02/08 12:24:39;;;;;;;;;;;;;;;-144.99;nan;52140.31;5067957;28;19925;-77
2023/02/08 12:27:13;;;;;;;;;;;;;;;-144.99;nan;52138.28;5076229;28;20021;-83
2023/02/08 12:29:46;;;;;;;;;;;;;;;-144.99;nan;52174.97;5073867;28;19967;-77
2023/02/08 12:32:20;;;;;;;;;;;;;;;-144.99;nan;52172.94;5079513;28;20112;-82
2023/02/08 12:34:52;;;;;;;;;;;;;;;-144.99;nan;52128.09;5078624;28;19981;-80
2023/02/08 12:43:12;;;;;;;;;;;;;;;-144.99;nan;52158.66;5072348;28;19943;-79
2023/02/08 12:45:55;;;;;;;;;;;;;;;-144.99;nan;52187.19;5076328;28;20368;-79
2023/02/08 12:48:28;;;;;;;;;;;;;;;-144.99;nan;52134.22;5088114;28;19971;-84
2023/02/08 12:51:01;;;;;;;;;;;;;;;-144.99;nan;52150.53;5075399;28;19947;-81
2023/02/08 12:53:31;;;;;;;;;;;;;;;-144.99;nan;52187.19;5069039;28;20010;-80
2023/02/08 12:56:00;;;;;;;;;;;;;;;-144.99;nan;52142.38;5069951;28;20020;-81